sensor_id;sensor_type;location;lat;lon;timestamp;temperature;humidity
13488;DHT22;6816;48.506;9.050;2023-07-30T00:01:20;20.60;99.90
13488;DHT22;6816;48.506;9.050;2023-07-30T00:04:20;20.70;99.90
13488;DHT22;6816;48.506;9.050;2023-07-30T00:07:21;20.60;99.90
13488;DHT22;6816;48.506;9.050;2023-07-30T00:10:22;20.60;99.90
13488;DHT22;6816;48.506;9.050;2023-07-30T00:13:22;20.60;99.90
13488;DHT22;6816;48.506;9.050;2023-07-30T00:16:25;20.50;99.90
13488;DHT22;6816;48.506;9.050;2023-07-30T00:19:26;20.60;99.90
13488;DHT22;6816;48.506;9.050;2023-07-30T00:22:27;20.50;99.90
13488;DHT22;6816;48.506;9.050;2023-07-30T00:25:27;20.50;99.90
13488;DHT22;6816;48.506;9.050;2023-07-30T00:28:28;20.50;99.90
13488;DHT22;6816;48.506;9.050;2023-07-30T00:31:29;20.50;99.90
13488;DHT22;6816;48.506;9.050;2023-07-30T00:34:29;20.40;99.90
13488;DHT22;6816;48.506;9.050;2023-07-30T00:37:30;20.40;99.90
13488;DHT22;6816;48.506;9.050;2023-07-30T00:40:30;20.40;99.90
13488;DHT22;6816;48.506;9.050;2023-07-30T00:43:31;20.40;99.90
13488;DHT22;6816;48.506;9.050;2023-07-30T00:46:32;20.40;99.90
13488;DHT22;6816;48.506;9.050;2023-07-30T00:49:33;20.30;99.90
13488;DHT22;6816;48.506;9.050;2023-07-30T00:52:34;20.30;99.90
13488;DHT22;6816;48.506;9.050;2023-07-30T00:55:35;20.30;99.90
13488;DHT22;6816;48.506;9.050;2023-07-30T00:58:36;20.30;99.90
13488;DHT22;6816;48.506;9.050;2023-07-30T01:01:37;20.30;99.90
13488;DHT22;6816;48.506;9.050;2023-07-30T01:04:40;20.30;99.90
13488;DHT22;6816;48.506;9.050;2023-07-30T01:07:41;20.30;99.90
13488;DHT22;6816;48.506;9.050;2023-07-30T01:10:41;20.30;99.90
13488;DHT22;6816;48.506;9.050;2023-07-30T01:13:43;20.20;99.90
13488;DHT22;6816;48.506;9.050;2023-07-30T01:16:44;20.30;99.90
13488;DHT22;6816;48.506;9.050;2023-07-30T01:19:44;20.20;99.90
13488;DHT22;6816;48.506;9.050;2023-07-30T01:22:45;20.20;99.90
13488;DHT22;6816;48.506;9.050;2023-07-30T01:25:48;20.20;99.90
13488;DHT22;6816;48.506;9.050;2023-07-30T01:28:56;20.20;99.90
13488;DHT22;6816;48.506;9.050;2023-07-30T01:32:02;20.10;99.90
13488;DHT22;6816;48.506;9.050;2023-07-30T01:35:08;20.10;99.90
13488;DHT22;6816;48.506;9.050;2023-07-30T01:38:10;20.10;99.90
13488;DHT22;6816;48.506;9.050;2023-07-30T01:41:11;20.00;99.90
13488;DHT22;6816;48.506;9.050;2023-07-30T01:44:11;20.00;99.90
13488;DHT22;6816;48.506;9.050;2023-07-30T01:47:12;20.00;99.90
13488;DHT22;6816;48.506;9.050;2023-07-30T01:50:13;19.90;99.90
13488;DHT22;6816;48.506;9.050;2023-07-30T01:53:13;19.90;99.90
13488;DHT22;6816;48.506;9.050;2023-07-30T01:56:14;19.90;99.90
13488;DHT22;6816;48.506;9.050;2023-07-30T01:59:15;19.80;99.90
13488;DHT22;6816;48.506;9.050;2023-07-30T02:02:15;19.80;99.90
13488;DHT22;6816;48.506;9.050;2023-07-30T02:05:16;19.80;99.90
13488;DHT22;6816;48.506;9.050;2023-07-30T02:08:17;19.70;99.90
13488;DHT22;6816;48.506;9.050;2023-07-30T02:11:17;19.70;99.90
13488;DHT22;6816;48.506;9.050;2023-07-30T02:14:18;19.70;99.90
13488;DHT22;6816;48.506;9.050;2023-07-30T02:17:19;19.70;99.90
13488;DHT22;6816;48.506;9.050;2023-07-30T02:20:19;19.70;99.90
13488;DHT22;6816;48.506;9.050;2023-07-30T02:23:20;19.70;99.90
13488;DHT22;6816;48.506;9.050;2023-07-30T02:26:21;19.70;99.90
13488;DHT22;6816;48.506;9.050;2023-07-30T02:29:22;19.60;99.90
13488;DHT22;6816;48.506;9.050;2023-07-30T02:32:22;19.70;99.90
13488;DHT22;6816;48.506;9.050;2023-07-30T02:35:23;19.60;99.90
13488;DHT22;6816;48.506;9.050;2023-07-30T02:38:23;19.60;99.90
13488;DHT22;6816;48.506;9.050;2023-07-30T02:41:24;19.60;99.90
13488;DHT22;6816;48.506;9.050;2023-07-30T02:44:25;19.60;99.90
13488;DHT22;6816;48.506;9.050;2023-07-30T02:47:27;19.60;99.90
13488;DHT22;6816;48.506;9.050;2023-07-30T02:50:28;19.40;99.90
13488;DHT22;6816;48.506;9.050;2023-07-30T02:53:29;19.50;99.90
13488;DHT22;6816;48.506;9.050;2023-07-30T02:56:31;19.50;99.90
13488;DHT22;6816;48.506;9.050;2023-07-30T02:59:32;19.40;99.90
13488;DHT22;6816;48.506;9.050;2023-07-30T03:02:36;19.40;99.90
13488;DHT22;6816;48.506;9.050;2023-07-30T03:05:41;19.30;99.90
13488;DHT22;6816;48.506;9.050;2023-07-30T03:08:43;19.30;99.90
13488;DHT22;6816;48.506;9.050;2023-07-30T03:11:44;19.30;99.90
13488;DHT22;6816;48.506;9.050;2023-07-30T03:14:45;19.30;99.90
13488;DHT22;6816;48.506;9.050;2023-07-30T03:17:46;19.20;99.90
13488;DHT22;6816;48.506;9.050;2023-07-30T03:20:47;18.90;99.90
13488;DHT22;6816;48.506;9.050;2023-07-30T03:23:48;19.10;99.90
13488;DHT22;6816;48.506;9.050;2023-07-30T03:26:48;19.10;99.90
13488;DHT22;6816;48.506;9.050;2023-07-30T03:29:49;19.10;99.90
13488;DHT22;6816;48.506;9.050;2023-07-30T03:32:50;19.10;99.90
13488;DHT22;6816;48.506;9.050;2023-07-30T03:35:50;19.10;99.90
13488;DHT22;6816;48.506;9.050;2023-07-30T03:38:51;19.10;99.90
13488;DHT22;6816;48.506;9.050;2023-07-30T03:41:51;19.10;99.90
13488;DHT22;6816;48.506;9.050;2023-07-30T03:44:52;19.10;99.90
13488;DHT22;6816;48.506;9.050;2023-07-30T03:47:53;19.10;99.90
13488;DHT22;6816;48.506;9.050;2023-07-30T03:50:54;19.10;99.90
13488;DHT22;6816;48.506;9.050;2023-07-30T03:53:55;19.10;99.90
13488;DHT22;6816;48.506;9.050;2023-07-30T03:56:55;19.10;99.90
13488;DHT22;6816;48.506;9.050;2023-07-30T03:59:56;19.10;99.90
13488;DHT22;6816;48.506;9.050;2023-07-30T04:02:56;19.10;99.90
13488;DHT22;6816;48.506;9.050;2023-07-30T04:05:57;19.10;99.90
13488;DHT22;6816;48.506;9.050;2023-07-30T04:08:58;19.30;99.90
13488;DHT22;6816;48.506;9.050;2023-07-30T04:11:58;19.20;99.90
13488;DHT22;6816;48.506;9.050;2023-07-30T04:14:59;19.20;99.90
13488;DHT22;6816;48.506;9.050;2023-07-30T04:17:59;19.20;99.90
13488;DHT22;6816;48.506;9.050;2023-07-30T04:21:00;19.20;99.90
13488;DHT22;6816;48.506;9.050;2023-07-30T04:24:01;19.30;99.90
13488;DHT22;6816;48.506;9.050;2023-07-30T04:27:04;19.30;99.90
13488;DHT22;6816;48.506;9.050;2023-07-30T04:30:06;19.30;99.90
13488;DHT22;6816;48.506;9.050;2023-07-30T04:33:07;19.30;99.90
13488;DHT22;6816;48.506;9.050;2023-07-30T04:36:07;19.30;99.90
13488;DHT22;6816;48.506;9.050;2023-07-30T04:39:08;19.40;99.90
13488;DHT22;6816;48.506;9.050;2023-07-30T04:42:09;19.40;99.90
13488;DHT22;6816;48.506;9.050;2023-07-30T04:45:09;19.40;99.90
13488;DHT22;6816;48.506;9.050;2023-07-30T04:48:11;19.50;99.90
13488;DHT22;6816;48.506;9.050;2023-07-30T04:51:12;19.50;99.90
13488;DHT22;6816;48.506;9.050;2023-07-30T04:54:12;19.50;99.90
13488;DHT22;6816;48.506;9.050;2023-07-30T04:57:13;19.50;99.90
13488;DHT22;6816;48.506;9.050;2023-07-30T05:00:13;19.50;99.90
13488;DHT22;6816;48.506;9.050;2023-07-30T05:03:14;19.60;99.90
13488;DHT22;6816;48.506;9.050;2023-07-30T05:06:15;19.60;99.90
13488;DHT22;6816;48.506;9.050;2023-07-30T05:09:16;19.60;99.90
13488;DHT22;6816;48.506;9.050;2023-07-30T05:12:16;19.70;99.90
13488;DHT22;6816;48.506;9.050;2023-07-30T05:15:17;19.70;99.90
13488;DHT22;6816;48.506;9.050;2023-07-30T05:18:17;19.80;99.90
13488;DHT22;6816;48.506;9.050;2023-07-30T05:21:18;19.80;99.90
13488;DHT22;6816;48.506;9.050;2023-07-30T05:24:19;19.90;99.90
13488;DHT22;6816;48.506;9.050;2023-07-30T05:27:19;20.00;99.90
13488;DHT22;6816;48.506;9.050;2023-07-30T05:30:20;20.00;99.90
13488;DHT22;6816;48.506;9.050;2023-07-30T05:33:20;20.10;99.90
13488;DHT22;6816;48.506;9.050;2023-07-30T05:36:21;20.20;99.90
13488;DHT22;6816;48.506;9.050;2023-07-30T05:39:22;20.20;99.90
13488;DHT22;6816;48.506;9.050;2023-07-30T05:42:22;20.30;99.90
13488;DHT22;6816;48.506;9.050;2023-07-30T05:45:23;20.40;99.90
13488;DHT22;6816;48.506;9.050;2023-07-30T05:48:24;20.40;99.90
13488;DHT22;6816;48.506;9.050;2023-07-30T05:51:24;20.40;99.90
13488;DHT22;6816;48.506;9.050;2023-07-30T05:54:25;20.50;99.90
13488;DHT22;6816;48.506;9.050;2023-07-30T05:57:26;20.50;99.90
13488;DHT22;6816;48.506;9.050;2023-07-30T06:00:26;20.60;99.90
13488;DHT22;6816;48.506;9.050;2023-07-30T06:03:27;20.70;99.90
13488;DHT22;6816;48.506;9.050;2023-07-30T06:06:28;20.70;99.90
13488;DHT22;6816;48.506;9.050;2023-07-30T06:09:29;20.80;99.90
13488;DHT22;6816;48.506;9.050;2023-07-30T06:12:30;20.80;99.90
13488;DHT22;6816;48.506;9.050;2023-07-30T06:15:31;20.90;99.90
13488;DHT22;6816;48.506;9.050;2023-07-30T06:18:32;20.70;99.90
13488;DHT22;6816;48.506;9.050;2023-07-30T06:21:33;20.90;99.90
13488;DHT22;6816;48.506;9.050;2023-07-30T06:24:33;20.90;99.90
13488;DHT22;6816;48.506;9.050;2023-07-30T06:27:34;20.90;99.90
13488;DHT22;6816;48.506;9.050;2023-07-30T06:30:35;21.00;99.90
13488;DHT22;6816;48.506;9.050;2023-07-30T06:33:37;21.00;99.90
13488;DHT22;6816;48.506;9.050;2023-07-30T06:36:38;21.10;99.90
13488;DHT22;6816;48.506;9.050;2023-07-30T06:39:38;21.10;99.90
13488;DHT22;6816;48.506;9.050;2023-07-30T06:42:39;21.10;99.90
13488;DHT22;6816;48.506;9.050;2023-07-30T06:45:39;21.20;99.90
13488;DHT22;6816;48.506;9.050;2023-07-30T06:48:40;21.30;99.90
13488;DHT22;6816;48.506;9.050;2023-07-30T06:51:41;21.40;99.90
13488;DHT22;6816;48.506;9.050;2023-07-30T06:54:41;21.50;99.90
13488;DHT22;6816;48.506;9.050;2023-07-30T06:57:42;21.60;99.90
13488;DHT22;6816;48.506;9.050;2023-07-30T07:00:43;21.80;99.90
13488;DHT22;6816;48.506;9.050;2023-07-30T07:03:43;21.90;99.90
13488;DHT22;6816;48.506;9.050;2023-07-30T07:06:44;21.90;99.90
13488;DHT22;6816;48.506;9.050;2023-07-30T07:09:44;22.00;99.90
13488;DHT22;6816;48.506;9.050;2023-07-30T07:12:45;22.00;99.90
13488;DHT22;6816;48.506;9.050;2023-07-30T07:15:46;22.00;99.90
13488;DHT22;6816;48.506;9.050;2023-07-30T07:18:46;22.00;99.90
13488;DHT22;6816;48.506;9.050;2023-07-30T07:21:49;22.00;99.90
13488;DHT22;6816;48.506;9.050;2023-07-30T07:24:51;22.00;99.90
13488;DHT22;6816;48.506;9.050;2023-07-30T07:27:52;22.00;99.90
13488;DHT22;6816;48.506;9.050;2023-07-30T07:30:54;21.90;99.90
13488;DHT22;6816;48.506;9.050;2023-07-30T07:33:55;21.90;99.90
13488;DHT22;6816;48.506;9.050;2023-07-30T07:36:56;21.90;99.90
13488;DHT22;6816;48.506;9.050;2023-07-30T07:39:58;21.80;99.90
13488;DHT22;6816;48.506;9.050;2023-07-30T07:42:59;21.80;99.90
13488;DHT22;6816;48.506;9.050;2023-07-30T07:46:00;21.70;99.90
13488;DHT22;6816;48.506;9.050;2023-07-30T07:49:01;21.70;99.90
13488;DHT22;6816;48.506;9.050;2023-07-30T07:52:01;21.60;99.90
13488;DHT22;6816;48.506;9.050;2023-07-30T07:55:04;21.60;99.90
13488;DHT22;6816;48.506;9.050;2023-07-30T07:58:06;21.50;99.90
13488;DHT22;6816;48.506;9.050;2023-07-30T08:01:06;21.50;99.90
13488;DHT22;6816;48.506;9.050;2023-07-30T08:04:07;21.50;99.90
13488;DHT22;6816;48.506;9.050;2023-07-30T08:07:08;21.50;99.90
13488;DHT22;6816;48.506;9.050;2023-07-30T08:10:09;21.60;99.90
13488;DHT22;6816;48.506;9.050;2023-07-30T08:13:11;21.60;99.90
13488;DHT22;6816;48.506;9.050;2023-07-30T08:16:12;21.70;99.90
13488;DHT22;6816;48.506;9.050;2023-07-30T08:19:12;21.80;99.90
13488;DHT22;6816;48.506;9.050;2023-07-30T08:22:13;21.90;99.90
13488;DHT22;6816;48.506;9.050;2023-07-30T08:25:14;22.00;99.90
13488;DHT22;6816;48.506;9.050;2023-07-30T08:28:14;22.00;99.90
13488;DHT22;6816;48.506;9.050;2023-07-30T08:31:15;22.10;99.90
13488;DHT22;6816;48.506;9.050;2023-07-30T08:34:15;22.20;99.90
13488;DHT22;6816;48.506;9.050;2023-07-30T08:37:16;22.20;99.90
13488;DHT22;6816;48.506;9.050;2023-07-30T08:40:17;22.30;99.90
13488;DHT22;6816;48.506;9.050;2023-07-30T08:43:19;22.30;99.90
13488;DHT22;6816;48.506;9.050;2023-07-30T08:46:19;22.30;99.90
13488;DHT22;6816;48.506;9.050;2023-07-30T08:49:20;22.30;99.90
13488;DHT22;6816;48.506;9.050;2023-07-30T08:52:20;22.40;99.90
13488;DHT22;6816;48.506;9.050;2023-07-30T08:55:22;22.40;99.90
13488;DHT22;6816;48.506;9.050;2023-07-30T08:58:25;22.50;99.90
13488;DHT22;6816;48.506;9.050;2023-07-30T09:01:30;22.50;99.90
13488;DHT22;6816;48.506;9.050;2023-07-30T09:04:33;22.60;99.90
13488;DHT22;6816;48.506;9.050;2023-07-30T09:07:34;22.60;99.90
13488;DHT22;6816;48.506;9.050;2023-07-30T09:10:35;22.60;99.90
13488;DHT22;6816;48.506;9.050;2023-07-30T09:13:40;22.60;99.90
13488;DHT22;6816;48.506;9.050;2023-07-30T09:16:41;22.60;99.90
13488;DHT22;6816;48.506;9.050;2023-07-30T09:19:42;22.60;99.90
13488;DHT22;6816;48.506;9.050;2023-07-30T09:22:42;22.60;99.90
13488;DHT22;6816;48.506;9.050;2023-07-30T09:25:43;22.50;99.90
13488;DHT22;6816;48.506;9.050;2023-07-30T09:28:47;22.40;99.90
13488;DHT22;6816;48.506;9.050;2023-07-30T09:31:53;22.30;99.90
13488;DHT22;6816;48.506;9.050;2023-07-30T09:35:07;22.30;99.90
13488;DHT22;6816;48.506;9.050;2023-07-30T09:38:08;22.20;99.90
13488;DHT22;6816;48.506;9.050;2023-07-30T09:41:11;22.20;99.90
13488;DHT22;6816;48.506;9.050;2023-07-30T09:44:17;22.10;99.90
13488;DHT22;6816;48.506;9.050;2023-07-30T09:47:18;22.00;99.90
13488;DHT22;6816;48.506;9.050;2023-07-30T09:50:19;21.90;99.90
13488;DHT22;6816;48.506;9.050;2023-07-30T09:53:20;21.90;99.90
13488;DHT22;6816;48.506;9.050;2023-07-30T09:56:21;21.90;99.90
13488;DHT22;6816;48.506;9.050;2023-07-30T09:59:22;21.90;99.90
13488;DHT22;6816;48.506;9.050;2023-07-30T10:02:24;21.90;99.90
13488;DHT22;6816;48.506;9.050;2023-07-30T10:05:31;21.90;99.90
13488;DHT22;6816;48.506;9.050;2023-07-30T10:08:35;21.90;99.90
13488;DHT22;6816;48.506;9.050;2023-07-30T10:11:38;21.90;99.90
13488;DHT22;6816;48.506;9.050;2023-07-30T10:14:40;21.90;99.90
13488;DHT22;6816;48.506;9.050;2023-07-30T10:17:41;22.00;99.90
13488;DHT22;6816;48.506;9.050;2023-07-30T10:20:52;21.90;99.90
13488;DHT22;6816;48.506;9.050;2023-07-30T10:23:59;21.90;99.90
13488;DHT22;6816;48.506;9.050;2023-07-30T10:27:05;22.00;99.90
13488;DHT22;6816;48.506;9.050;2023-07-30T10:30:17;22.00;99.90
13488;DHT22;6816;48.506;9.050;2023-07-30T10:33:18;22.00;99.90
13488;DHT22;6816;48.506;9.050;2023-07-30T10:36:34;22.00;99.90
13488;DHT22;6816;48.506;9.050;2023-07-30T10:39:36;22.00;99.90
13488;DHT22;6816;48.506;9.050;2023-07-30T10:42:37;22.00;99.90
13488;DHT22;6816;48.506;9.050;2023-07-30T10:45:48;22.10;99.90
13488;DHT22;6816;48.506;9.050;2023-07-30T10:48:49;22.10;99.90
13488;DHT22;6816;48.506;9.050;2023-07-30T10:51:52;22.20;99.90
13488;DHT22;6816;48.506;9.050;2023-07-30T10:55:00;22.20;99.90
13488;DHT22;6816;48.506;9.050;2023-07-30T10:58:01;22.30;99.90
13488;DHT22;6816;48.506;9.050;2023-07-30T11:01:07;22.30;99.90
13488;DHT22;6816;48.506;9.050;2023-07-30T11:04:16;22.40;99.90
13488;DHT22;6816;48.506;9.050;2023-07-30T11:07:18;22.40;99.90
13488;DHT22;6816;48.506;9.050;2023-07-30T11:10:19;22.60;99.90
13488;DHT22;6816;48.506;9.050;2023-07-30T11:13:20;22.70;99.90
13488;DHT22;6816;48.506;9.050;2023-07-30T11:16:20;22.70;99.90
13488;DHT22;6816;48.506;9.050;2023-07-30T11:19:21;22.80;99.90
13488;DHT22;6816;48.506;9.050;2023-07-30T11:22:32;22.90;99.90
13488;DHT22;6816;48.506;9.050;2023-07-30T11:25:33;22.90;99.90
13488;DHT22;6816;48.506;9.050;2023-07-30T11:28:35;22.80;99.90
13488;DHT22;6816;48.506;9.050;2023-07-30T11:31:37;22.70;99.90
13488;DHT22;6816;48.506;9.050;2023-07-30T11:34:38;22.80;99.90
13488;DHT22;6816;48.506;9.050;2023-07-30T11:37:40;22.80;99.90
13488;DHT22;6816;48.506;9.050;2023-07-30T11:40:43;22.80;99.90
13488;DHT22;6816;48.506;9.050;2023-07-30T11:43:44;22.80;99.90
13488;DHT22;6816;48.506;9.050;2023-07-30T11:46:54;22.90;99.90
13488;DHT22;6816;48.506;9.050;2023-07-30T11:49:58;22.80;99.90
13488;DHT22;6816;48.506;9.050;2023-07-30T11:52:59;22.80;99.90
13488;DHT22;6816;48.506;9.050;2023-07-30T11:55:59;22.80;99.90
13488;DHT22;6816;48.506;9.050;2023-07-30T11:59:09;22.80;99.90
13488;DHT22;6816;48.506;9.050;2023-07-30T12:02:17;22.70;99.90
13488;DHT22;6816;48.506;9.050;2023-07-30T12:05:17;22.70;99.90
13488;DHT22;6816;48.506;9.050;2023-07-30T12:08:25;22.70;99.90
13488;DHT22;6816;48.506;9.050;2023-07-30T12:11:27;22.70;99.90
13488;DHT22;6816;48.506;9.050;2023-07-30T12:14:29;22.80;99.90
13488;DHT22;6816;48.506;9.050;2023-07-30T12:17:42;22.80;99.90
13488;DHT22;6816;48.506;9.050;2023-07-30T12:20:42;22.90;99.90
13488;DHT22;6816;48.506;9.050;2023-07-30T12:23:43;22.90;99.90
13488;DHT22;6816;48.506;9.050;2023-07-30T12:26:44;23.00;99.90
13488;DHT22;6816;48.506;9.050;2023-07-30T12:29:44;23.10;99.90
13488;DHT22;6816;48.506;9.050;2023-07-30T12:32:45;23.20;99.90
13488;DHT22;6816;48.506;9.050;2023-07-30T12:35:46;23.30;99.90
13488;DHT22;6816;48.506;9.050;2023-07-30T12:38:46;23.40;99.90
13488;DHT22;6816;48.506;9.050;2023-07-30T12:41:47;23.50;99.90
13488;DHT22;6816;48.506;9.050;2023-07-30T12:44:47;23.50;99.90
13488;DHT22;6816;48.506;9.050;2023-07-30T12:47:48;23.60;99.90
13488;DHT22;6816;48.506;9.050;2023-07-30T12:50:49;23.60;99.90
13488;DHT22;6816;48.506;9.050;2023-07-30T12:53:51;23.60;99.90
13488;DHT22;6816;48.506;9.050;2023-07-30T12:56:51;23.70;99.90
13488;DHT22;6816;48.506;9.050;2023-07-30T12:59:52;23.70;99.90
13488;DHT22;6816;48.506;9.050;2023-07-30T13:02:52;23.70;99.90
13488;DHT22;6816;48.506;9.050;2023-07-30T13:05:55;23.70;99.90
13488;DHT22;6816;48.506;9.050;2023-07-30T13:08:56;23.70;99.90
13488;DHT22;6816;48.506;9.050;2023-07-30T13:11:57;23.80;99.90
13488;DHT22;6816;48.506;9.050;2023-07-30T13:14:58;23.80;99.90
13488;DHT22;6816;48.506;9.050;2023-07-30T13:17:58;23.80;99.90
13488;DHT22;6816;48.506;9.050;2023-07-30T13:20:59;23.80;99.90
13488;DHT22;6816;48.506;9.050;2023-07-30T13:23:59;23.80;99.90
13488;DHT22;6816;48.506;9.050;2023-07-30T13:27:00;23.80;99.90
13488;DHT22;6816;48.506;9.050;2023-07-30T13:30:01;23.80;99.90
13488;DHT22;6816;48.506;9.050;2023-07-30T13:33:01;23.80;99.90
13488;DHT22;6816;48.506;9.050;2023-07-30T13:36:03;23.80;99.90
13488;DHT22;6816;48.506;9.050;2023-07-30T13:39:04;23.80;99.90
13488;DHT22;6816;48.506;9.050;2023-07-30T13:42:05;23.80;99.90
13488;DHT22;6816;48.506;9.050;2023-07-30T13:45:05;23.80;99.90
13488;DHT22;6816;48.506;9.050;2023-07-30T13:48:06;23.80;99.90
13488;DHT22;6816;48.506;9.050;2023-07-30T13:51:07;23.90;99.90
13488;DHT22;6816;48.506;9.050;2023-07-30T13:54:08;24.00;99.90
13488;DHT22;6816;48.506;9.050;2023-07-30T13:57:12;24.10;99.90
13488;DHT22;6816;48.506;9.050;2023-07-30T14:00:13;24.10;99.90
13488;DHT22;6816;48.506;9.050;2023-07-30T14:03:13;24.20;99.90
13488;DHT22;6816;48.506;9.050;2023-07-30T14:06:14;24.20;99.90
13488;DHT22;6816;48.506;9.050;2023-07-30T14:09:15;24.20;99.90
13488;DHT22;6816;48.506;9.050;2023-07-30T14:12:16;24.30;99.90
13488;DHT22;6816;48.506;9.050;2023-07-30T14:15:17;24.40;99.90
13488;DHT22;6816;48.506;9.050;2023-07-30T14:18:18;24.40;99.90
13488;DHT22;6816;48.506;9.050;2023-07-30T14:21:18;24.40;99.90
13488;DHT22;6816;48.506;9.050;2023-07-30T14:28:16;24.60;96.50
13488;DHT22;6816;48.506;9.050;2023-07-30T14:31:17;24.60;99.90
13488;DHT22;6816;48.506;9.050;2023-07-30T14:34:17;24.60;99.90
13488;DHT22;6816;48.506;9.050;2023-07-30T14:37:18;24.60;99.90
13488;DHT22;6816;48.506;9.050;2023-07-30T14:40:18;24.60;99.40
13488;DHT22;6816;48.506;9.050;2023-07-30T14:43:19;24.60;99.30
13488;DHT22;6816;48.506;9.050;2023-07-30T14:46:20;24.60;99.00
13488;DHT22;6816;48.506;9.050;2023-07-30T14:49:20;24.60;98.70
13488;DHT22;6816;48.506;9.050;2023-07-30T14:52:21;24.60;98.40
13488;DHT22;6816;48.506;9.050;2023-07-30T14:55:21;24.60;97.70
13488;DHT22;6816;48.506;9.050;2023-07-30T14:58:22;24.50;97.50
13488;DHT22;6816;48.506;9.050;2023-07-30T15:01:28;24.50;97.90
13488;DHT22;6816;48.506;9.050;2023-07-30T15:04:29;24.50;96.30
13488;DHT22;6816;48.506;9.050;2023-07-30T15:07:31;24.50;97.80
13488;DHT22;6816;48.506;9.050;2023-07-30T15:10:33;24.60;97.80
13488;DHT22;6816;48.506;9.050;2023-07-30T15:13:33;24.60;97.90
13488;DHT22;6816;48.506;9.050;2023-07-30T15:16:34;24.70;97.80
13488;DHT22;6816;48.506;9.050;2023-07-30T15:19:36;24.80;98.30
13488;DHT22;6816;48.506;9.050;2023-07-30T15:22:36;24.90;98.50
13488;DHT22;6816;48.506;9.050;2023-07-30T15:25:37;25.10;98.90
13488;DHT22;6816;48.506;9.050;2023-07-30T15:28:38;25.30;99.00
13488;DHT22;6816;48.506;9.050;2023-07-30T15:31:38;25.50;98.50
13488;DHT22;6816;48.506;9.050;2023-07-30T15:34:39;25.60;98.20
13488;DHT22;6816;48.506;9.050;2023-07-30T15:37:40;25.90;97.70
13488;DHT22;6816;48.506;9.050;2023-07-30T15:40:41;26.00;96.40
13488;DHT22;6816;48.506;9.050;2023-07-30T15:43:43;26.10;96.50
13488;DHT22;6816;48.506;9.050;2023-07-30T15:46:46;26.20;95.80
13488;DHT22;6816;48.506;9.050;2023-07-30T15:49:47;26.30;93.90
13488;DHT22;6816;48.506;9.050;2023-07-30T15:52:48;26.30;94.70
13488;DHT22;6816;48.506;9.050;2023-07-30T15:55:48;26.40;94.50
13488;DHT22;6816;48.506;9.050;2023-07-30T15:58:49;26.40;94.00
13488;DHT22;6816;48.506;9.050;2023-07-30T16:01:49;26.40;94.00
13488;DHT22;6816;48.506;9.050;2023-07-30T16:04:50;26.50;93.90
13488;DHT22;6816;48.506;9.050;2023-07-30T16:07:50;26.50;93.30
13488;DHT22;6816;48.506;9.050;2023-07-30T16:11:01;26.40;92.70
13488;DHT22;6816;48.506;9.050;2023-07-30T16:14:01;26.40;89.90
13488;DHT22;6816;48.506;9.050;2023-07-30T16:17:02;26.20;92.00
13488;DHT22;6816;48.506;9.050;2023-07-30T16:20:03;26.00;91.60
13488;DHT22;6816;48.506;9.050;2023-07-30T16:23:05;25.90;91.30
13488;DHT22;6816;48.506;9.050;2023-07-30T16:26:05;25.60;91.50
13488;DHT22;6816;48.506;9.050;2023-07-30T16:29:07;25.50;91.40
13488;DHT22;6816;48.506;9.050;2023-07-30T16:32:07;25.20;91.60
13488;DHT22;6816;48.506;9.050;2023-07-30T16:35:08;25.10;91.40
13488;DHT22;6816;48.506;9.050;2023-07-30T16:38:09;25.00;91.30
13488;DHT22;6816;48.506;9.050;2023-07-30T16:41:09;24.80;91.40
13488;DHT22;6816;48.506;9.050;2023-07-30T16:44:10;24.70;92.00
13488;DHT22;6816;48.506;9.050;2023-07-30T16:47:10;24.50;91.60
13488;DHT22;6816;48.506;9.050;2023-07-30T16:50:11;24.40;91.40
13488;DHT22;6816;48.506;9.050;2023-07-30T16:53:12;24.30;91.30
13488;DHT22;6816;48.506;9.050;2023-07-30T16:56:14;24.20;91.10
13488;DHT22;6816;48.506;9.050;2023-07-30T16:59:18;24.10;91.50
13488;DHT22;6816;48.506;9.050;2023-07-30T17:02:18;24.00;91.50
13488;DHT22;6816;48.506;9.050;2023-07-30T17:05:19;23.90;91.20
13488;DHT22;6816;48.506;9.050;2023-07-30T17:08:20;23.80;91.20
13488;DHT22;6816;48.506;9.050;2023-07-30T17:11:20;23.80;91.30
13488;DHT22;6816;48.506;9.050;2023-07-30T17:14:21;23.70;91.00
13488;DHT22;6816;48.506;9.050;2023-07-30T17:17:22;23.60;90.80
13488;DHT22;6816;48.506;9.050;2023-07-30T17:20:22;23.50;90.70
13488;DHT22;6816;48.506;9.050;2023-07-30T17:23:23;23.50;90.60
13488;DHT22;6816;48.506;9.050;2023-07-30T17:26:25;23.40;90.50
13488;DHT22;6816;48.506;9.050;2023-07-30T17:29:27;23.30;90.10
13488;DHT22;6816;48.506;9.050;2023-07-30T17:32:27;23.20;90.50
13488;DHT22;6816;48.506;9.050;2023-07-30T17:35:28;23.20;90.10
13488;DHT22;6816;48.506;9.050;2023-07-30T17:38:29;23.10;90.20
13488;DHT22;6816;48.506;9.050;2023-07-30T17:41:30;23.00;90.70
13488;DHT22;6816;48.506;9.050;2023-07-30T17:44:31;23.00;90.60
13488;DHT22;6816;48.506;9.050;2023-07-30T17:47:32;22.90;90.60
13488;DHT22;6816;48.506;9.050;2023-07-30T17:50:32;22.90;90.60
13488;DHT22;6816;48.506;9.050;2023-07-30T17:53:33;22.80;90.90
13488;DHT22;6816;48.506;9.050;2023-07-30T17:56:34;22.80;90.80
13488;DHT22;6816;48.506;9.050;2023-07-30T17:59:34;22.70;91.00
13488;DHT22;6816;48.506;9.050;2023-07-30T18:02:35;22.70;91.30
13488;DHT22;6816;48.506;9.050;2023-07-30T18:05:37;22.60;91.30
13488;DHT22;6816;48.506;9.050;2023-07-30T18:08:37;22.50;90.90
13488;DHT22;6816;48.506;9.050;2023-07-30T18:11:38;22.50;91.20
13488;DHT22;6816;48.506;9.050;2023-07-30T18:14:40;22.40;91.00
13488;DHT22;6816;48.506;9.050;2023-07-30T18:17:41;22.40;90.70
13488;DHT22;6816;48.506;9.050;2023-07-30T18:20:42;22.30;90.60
13488;DHT22;6816;48.506;9.050;2023-07-30T18:23:42;22.20;90.90
13488;DHT22;6816;48.506;9.050;2023-07-30T18:26:43;22.20;91.10
13488;DHT22;6816;48.506;9.050;2023-07-30T18:29:43;22.20;91.10
13488;DHT22;6816;48.506;9.050;2023-07-30T18:32:44;22.10;91.00
13488;DHT22;6816;48.506;9.050;2023-07-30T18:35:44;22.00;91.10
13488;DHT22;6816;48.506;9.050;2023-07-30T18:38:45;22.00;91.00
13488;DHT22;6816;48.506;9.050;2023-07-30T18:41:46;21.90;91.20
13488;DHT22;6816;48.506;9.050;2023-07-30T18:44:46;21.90;91.00
13488;DHT22;6816;48.506;9.050;2023-07-30T18:47:48;21.80;91.10
13488;DHT22;6816;48.506;9.050;2023-07-30T18:50:52;21.80;91.10
13488;DHT22;6816;48.506;9.050;2023-07-30T18:53:53;21.70;90.40
13488;DHT22;6816;48.506;9.050;2023-07-30T18:56:54;21.60;91.20
13488;DHT22;6816;48.506;9.050;2023-07-30T18:59:54;21.50;91.60
13488;DHT22;6816;48.506;9.050;2023-07-30T19:02:55;21.50;91.70
13488;DHT22;6816;48.506;9.050;2023-07-30T19:05:56;21.40;91.70
13488;DHT22;6816;48.506;9.050;2023-07-30T19:08:56;21.30;91.80
13488;DHT22;6816;48.506;9.050;2023-07-30T19:11:57;21.20;91.90
13488;DHT22;6816;48.506;9.050;2023-07-30T19:14:58;21.30;91.90
13488;DHT22;6816;48.506;9.050;2023-07-30T19:17:59;21.00;92.00
13488;DHT22;6816;48.506;9.050;2023-07-30T19:20:59;21.00;92.30
13488;DHT22;6816;48.506;9.050;2023-07-30T19:24:00;20.90;92.40
13488;DHT22;6816;48.506;9.050;2023-07-30T19:27:00;20.90;92.80